Time;durP1;ratioP1;P1;durP2;ratioP2;P2;SDS_P1;SDS_P2;PMS_P1;PMS_P2;Temp;Humidity;BMP_temperature;BMP_pressure;BME280_temperature;BME280_humidity;BME280_pressure;Samples;Min_cycle;Max_cycle;Signal;HPM_P1;HPM_P2
2023/01/07 00:01:37;;;;;;;14.40;13.00;;;;;;;12.23;80.24;99880.25;5033203;28;20064;-78
2023/01/07 00:04:06;;;;;;;16.52;14.50;;;;;;;12.24;80.33;99861.69;5010005;28;20137;-78
2023/01/07 00:06:34;;;;;;;15.02;13.55;;;;;;;12.24;80.18;99861.69;5013136;28;20050;-77
2023/01/07 00:09:03;;;;;;;16.05;14.05;;;;;;;12.25;80.37;99867.81;5013519;28;20140;-78
2023/01/07 00:11:35;;;;;;;15.27;13.68;;;;;;;12.24;80.40;99872.25;5013403;28;20137;-78
2023/01/07 00:14:03;;;;;;;15.40;13.90;;;;;;;12.24;80.42;99866.97;5013471;28;20140;-78
2023/01/07 00:16:32;;;;;;;14.73;13.27;;;;;;;12.24;80.68;99872.25;5073193;23;20328;-79
2023/01/07 00:19:01;;;;;;;15.07;13.50;;;;;;;12.25;80.67;99873.09;5012116;28;20107;-79
2023/01/07 00:21:28;;;;;;;15.88;14.15;;;;;;;12.28;80.65;99877.31;5011466;28;20138;-79
2023/01/07 00:24:00;;;;;;;15.13;13.60;;;;;;;12.25;80.53;99879.22;5011621;28;20046;-79
2023/01/07 00:26:30;;;;;;;14.77;13.13;;;;;;;12.27;80.53;99873.00;4994186;28;20054;-78
2023/01/07 00:28:58;;;;;;;14.93;13.18;;;;;;;12.28;80.80;99870.25;5011902;28;20475;-79
2023/01/07 00:31:30;;;;;;;13.82;12.52;;;;;;;12.29;80.70;99865.84;5011761;28;20056;-79
2023/01/07 00:36:27;;;;;;;13.43;11.45;;;;;;;12.33;80.68;99854.97;5011327;28;20301;-79
2023/01/07 00:39:02;;;;;;;13.93;12.27;;;;;;;12.35;80.77;99850.47;4994196;28;20053;-79
2023/01/07 00:41:28;;;;;;;13.05;11.65;;;;;;;12.37;80.64;99847.72;5011742;28;20058;-79
2023/01/07 00:43:55;;;;;;;13.25;11.93;;;;;;;12.38;80.75;99849.44;5011588;28;20046;-79
2023/01/07 00:46:25;;;;;;;13.63;12.30;;;;;;;12.40;80.66;99850.16;5011139;28;20482;-79
2023/01/07 00:48:51;;;;;;;13.15;11.85;;;;;;;12.41;80.61;99851.03;5011238;28;20500;-79
2023/01/07 00:51:18;;;;;;;14.05;12.55;;;;;;;12.42;80.57;99853.56;5011530;28;20128;-79
2023/01/07 00:53:45;;;;;;;14.10;12.63;;;;;;;12.42;80.54;99842.16;5011678;28;20049;-79
2023/01/07 00:56:17;;;;;;;14.32;12.82;;;;;;;12.42;80.45;99844.78;5011638;28;20046;-79
2023/01/07 00:58:44;;;;;;;13.60;12.20;;;;;;;12.43;80.48;99844.69;5011504;28;20045;-79
2023/01/07 01:01:11;;;;;;;13.18;11.43;;;;;;;12.43;80.59;99841.19;5011447;28;20054;-79
2023/01/07 01:03:38;;;;;;;13.80;12.50;;;;;;;12.41;80.56;99841.28;5011574;28;20136;-79
2023/01/07 01:06:14;;;;;;;15.60;12.98;;;;;;;12.42;80.29;99839.50;5011315;28;20081;-79
2023/01/07 01:08:45;;;;;;;14.98;13.48;;;;;;;12.41;80.33;99835.19;4993835;28;20105;-79
2023/01/07 01:11:13;;;;;;;15.85;14.18;;;;;;;12.45;80.51;99834.03;4993972;28;20054;-79
2023/01/07 01:13:40;;;;;;;16.63;14.85;;;;;;;12.46;80.65;99835.72;5011159;28;20050;-79
2023/01/07 01:16:09;;;;;;;17.50;15.70;;;;;;;12.45;80.51;99839.31;5011140;28;20116;-79
2023/01/07 01:18:36;;;;;;;17.60;15.25;;;;;;;12.46;80.54;99849.78;5010768;28;20061;-79
2023/01/07 01:21:08;;;;;;;17.15;14.93;;;;;;;12.46;80.44;99833.09;4993678;28;20108;-79
2023/01/07 01:23:34;;;;;;;17.02;15.23;;;;;;;12.46;80.54;99833.09;5010947;28;20496;-79
2023/01/07 01:26:07;;;;;;;17.67;15.00;;;;;;;12.45;80.18;99831.41;5010689;28;20054;-79
2023/01/07 01:28:34;;;;;;;16.88;15.07;;;;;;;12.46;80.46;99833.94;5009944;28;20507;-79
2023/01/07 01:31:01;;;;;;;16.27;14.68;;;;;;;12.46;80.36;99828.66;5010411;28;20479;-79
2023/01/07 01:33:27;;;;;;;16.65;14.98;;;;;;;12.46;80.49;99836.59;4992988;28;20050;-79
2023/01/07 01:35:54;;;;;;;15.13;13.63;;;;;;;12.46;80.54;99835.72;5010404;28;20046;-79
2023/01/07 01:38:20;;;;;;;16.10;14.32;;;;;;;12.45;80.56;99829.59;5010369;28;20116;-79
2023/01/07 01:40:46;;;;;;;15.82;14.23;;;;;;;12.45;80.57;99823.47;5009217;28;20050;-79
2023/01/07 01:43:32;;;;;;;16.45;14.55;;;;;;;12.38;79.88;99831.78;5009277;28;20057;-79
2023/01/07 01:46:10;;;;;;;16.25;14.43;;;;;;;12.41;79.98;99821.97;5002682;28;20100;-79
2023/01/07 01:48:42;;;;;;;15.63;14.00;;;;;;;12.41;80.35;99822.81;5010192;28;20077;-79
2023/01/07 01:51:10;;;;;;;16.67;14.52;;;;;;;12.42;80.32;99831.59;5010350;28;20057;-80
2023/01/07 01:53:36;;;;;;;16.55;14.80;;;;;;;12.42;80.56;99836.88;4992740;28;20463;-79
2023/01/07 01:56:07;;;;;;;16.33;14.70;;;;;;;12.40;80.40;99836.97;5010293;28;20057;-79
2023/01/07 01:58:40;;;;;;;16.27;14.40;;;;;;;12.38;80.44;99831.78;5010174;28;20057;-79
2023/01/07 02:01:06;;;;;;;16.80;15.10;;;;;;;12.41;80.57;99835.19;5010253;28;20058;-79
2023/01/07 02:03:36;;;;;;;17.33;15.10;;;;;;;12.41;80.54;99841.28;5009948;28;20054;-79
2023/01/07 02:06:04;;;;;;;18.15;15.85;;;;;;;12.41;80.64;99829.91;5010238;28;20054;-79
2023/01/07 02:08:31;;;;;;;18.10;15.88;;;;;;;12.40;80.62;99829.03;5009894;28;20474;-79
2023/01/07 02:11:17;;;;;;;16.60;14.88;;;;;;;12.38;80.57;99829.13;4992598;28;20084;-79
2023/01/07 02:14:03;;;;;;;18.40;15.52;;;;;;;12.36;79.97;99831.03;5010051;28;20129;-79
2023/01/07 02:16:39;;;;;;;17.52;15.68;;;;;;;12.36;80.47;99828.41;5009813;28;20118;-79
2023/01/07 02:19:34;;;;;;;18.08;15.65;;;;;;;12.36;80.28;99827.53;5010027;28;20485;-79
2023/01/07 02:22:47;;;;;;;18.90;16.85;;;;;;;12.35;80.24;99829.34;5009897;28;20049;-79
2023/01/07 02:25:42;;;;;;;11.40;10.25;;;;;;;12.35;80.08;99816.16;4972530;28;20101;-79
2023/01/07 02:28:18;;;;;;;18.02;15.80;;;;;;;12.32;79.91;99821.63;4990073;28;20050;-79
2023/01/07 02:30:53;;;;;;;20.40;16.48;;;;;;;12.34;80.36;99814.44;4990552;28;20488;-79
2023/01/07 02:33:28;;;;;;;18.17;15.30;;;;;;;12.30;80.24;99812.09;4990312;28;20046;-79
2023/01/07 02:36:07;;;;;;;17.42;15.57;;;;;;;12.29;80.28;99819.16;4972621;28;20128;-79
2023/01/07 02:38:52;;;;;;;18.23;15.25;;;;;;;12.31;80.64;99811.16;4990034;28;20054;-79
2023/01/07 02:41:43;;;;;;;16.90;14.80;;;;;;;12.27;80.45;99813.16;4989985;28;20050;-79
2023/01/07 02:44:37;;;;;;;15.45;13.77;;;;;;;12.26;80.26;99803.50;4990068;28;20050;-79
2023/01/07 02:47:17;;;;;;;16.48;14.55;;;;;;;12.27;80.51;99802.59;4993337;28;20406;-79
2023/01/07 02:49:47;;;;;;;15.63;14.02;;;;;;;12.28;80.58;99799.00;4994351;28;20050;-78
2023/01/07 02:52:26;;;;;;;17.58;14.20;;;;;;;12.27;80.64;99793.81;4994525;28;20065;-79
2023/01/07 02:54:58;;;;;;;14.95;13.35;;;;;;;12.27;80.81;99797.31;4976576;28;20054;-78
2023/01/07 02:58:09;;;;;;;16.33;14.45;;;;;;;12.24;80.47;99790.44;4993773;28;20054;-79
2023/01/07 03:00:50;;;;;;;15.20;13.60;;;;;;;12.27;80.53;99789.41;4994004;28;20485;-79
2023/01/07 03:03:46;;;;;;;16.25;13.70;;;;;;;12.28;80.23;99793.72;4993800;28;20062;-79
2023/01/07 03:06:50;;;;;;;14.90;13.40;;;;;;;12.27;80.31;99789.41;4976103;28;20069;-79
2023/01/07 03:09:37;;;;;;;15.30;12.23;;;;;;;12.25;80.11;99792.13;4993686;28;20050;-79
2023/01/07 03:12:21;;;;;;;14.02;11.82;;;;;;;12.29;80.48;99784.03;4993651;28;20130;-79
2023/01/07 03:14:49;;;;;;;;;;;;;;;12.28;80.05;99777.03;4993987;28;20509;-78
2023/01/07 03:17:24;;;;;;;15.50;12.10;;;;;;;12.28;80.05;99772.63;4993378;28;19925;-79
2023/01/07 03:19:56;;;;;;;13.82;12.32;;;;;;;12.28;80.38;99783.16;5011122;28;20613;-79
2023/01/07 03:22:26;;;;;;;13.23;11.82;;;;;;;12.26;80.45;99769.19;4995638;28;20419;-79
2023/01/07 03:24:56;;;;;;;16.45;11.90;;;;;;;12.26;80.67;99774.47;4995413;28;20100;-79
2023/01/07 03:27:25;;;;;;;13.75;12.35;;;;;;;12.26;80.78;99779.75;5012856;28;20053;-79
2023/01/07 03:29:52;;;;;;;12.63;11.25;;;;;;;12.27;81.00;99777.97;4995466;28;20085;-79
2023/01/07 03:32:28;;;;;;;12.65;11.23;;;;;;;12.25;80.70;99778.06;5012693;28;20451;-79
2023/01/07 03:34:55;;;;;;;10.95;9.85;;;;;;;12.27;80.50;99762.16;5012734;28;20072;-79
2023/01/07 03:37:25;;;;;;;13.60;11.60;;;;;;;12.28;80.54;99766.47;5012609;28;20060;-80
2023/01/07 03:39:52;;;;;;;11.85;10.15;;;;;;;12.28;80.61;99762.06;5012926;28;20054;-80
2023/01/07 03:42:38;;;;;;;11.93;10.32;;;;;;;12.25;80.30;99762.25;4995361;28;20054;-79
2023/01/07 03:45:12;;;;;;;11.40;9.90;;;;;;;12.25;80.14;99762.25;5012503;28;20053;-79
2023/01/07 03:47:42;;;;;;;11.45;10.25;;;;;;;12.26;80.29;99761.28;5012664;28;20269;-79
2023/01/07 03:50:09;;;;;;;10.55;9.40;;;;;;;12.25;80.28;99756.97;5012708;28;20112;-79
2023/01/07 03:52:36;;;;;;;11.57;9.85;;;;;;;12.24;80.25;99750.00;5012628;28;20116;-79
2023/01/07 03:55:03;;;;;;;11.38;9.35;;;;;;;12.23;80.37;99749.13;4995006;28;20078;-80
2023/01/07 03:57:31;;;;;;;10.55;9.45;;;;;;;12.23;80.47;99750.94;5012363;28;20057;-80
2023/01/07 03:59:57;;;;;;;11.93;9.15;;;;;;;12.23;80.50;99748.31;5012337;28;20084;-79
2023/01/07 04:02:24;;;;;;;11.13;10.00;;;;;;;12.23;80.57;99743.88;5012174;28;20054;-79
2023/01/07 04:04:51;;;;;;;8.77;7.88;;;;;;;12.23;80.46;99748.31;5012357;28;20081;-79
2023/01/07 04:07:18;;;;;;;11.00;9.30;;;;;;;12.23;80.42;99749.13;4994706;28;20128;-79
2023/01/07 04:09:46;;;;;;;9.05;8.05;;;;;;;12.23;80.13;99745.66;5012328;28;20053;-79
2023/01/07 04:12:13;;;;;;;8.85;7.95;;;;;;;12.23;80.53;99740.41;5012110;28;20053;-80
2023/01/07 04:14:39;;;;;;;11.38;8.40;;;;;;;12.22;80.50;99726.34;4994532;28;20054;-79
2023/01/07 04:17:05;;;;;;;11.32;7.93;;;;;;;12.22;80.47;99741.31;5011842;28;20057;-79
2023/01/07 04:19:32;;;;;;;10.43;8.25;;;;;;;12.22;80.33;99728.97;4994696;28;20053;-79
2023/01/07 04:21:58;;;;;;;10.45;7.72;;;;;;;12.23;80.25;99724.56;5012348;28;20046;-80
2023/01/07 04:24:25;;;;;;;9.27;7.97;;;;;;;12.22;80.47;99726.34;5011980;28;20061;-80
2023/01/07 04:26:51;;;;;;;8.43;7.25;;;;;;;12.22;80.33;99725.47;4994132;28;20138;-78
2023/01/07 04:29:17;;;;;;;9.60;6.60;;;;;;;12.22;80.14;99726.34;5011549;28;20515;-80
2023/01/07 04:31:46;;;;;;;9.88;6.80;;;;;;;12.22;80.21;99722.84;5011916;28;20057;-79
2023/01/07 04:34:12;;;;;;;7.22;6.53;;;;;;;12.23;80.32;99721.91;5011674;28;20421;-79
2023/01/07 04:36:39;;;;;;;7.03;6.32;;;;;;;12.22;80.29;99714.94;5011345;28;20058;-79
2023/01/07 04:39:05;;;;;;;9.18;5.75;;;;;;;12.22;80.39;99717.56;5011725;28;20049;-79
2023/01/07 04:41:32;;;;;;;6.60;5.82;;;;;;;12.23;80.13;99716.66;4994241;28;20060;-79
2023/01/07 04:43:58;;;;;;;6.05;5.25;;;;;;;12.22;80.29;99707.88;5011392;28;20139;-79
2023/01/07 04:46:24;;;;;;;6.78;5.53;;;;;;;12.22;80.09;99709.66;5011600;28;20053;-79
2023/01/07 04:48:51;;;;;;;5.97;4.82;;;;;;;12.22;80.21;99713.16;5011543;28;20423;-79
2023/01/07 04:51:19;;;;;;;5.28;4.78;;;;;;;12.24;80.32;99708.63;5011602;28;20081;-79
2023/01/07 04:53:46;;;;;;;5.88;4.50;;;;;;;12.24;80.19;99708.63;4994007;28;20050;-79
2023/01/07 04:56:13;;;;;;;4.97;4.45;;;;;;;12.25;80.20;99709.47;5011061;28;20053;-79
2023/01/07 04:58:40;;;;;;;4.85;4.28;;;;;;;12.26;80.10;99708.50;5010957;28;20050;-79
2023/01/07 05:01:06;;;;;;;5.82;4.72;;;;;;;12.26;80.22;99703.22;5011227;28;20598;-79
2023/01/07 05:03:36;;;;;;;7.50;4.95;;;;;;;12.24;80.08;99692.78;5011279;28;20108;-79
2023/01/07 05:06:02;;;;;;;5.47;3.90;;;;;;;12.27;80.06;99696.16;5011299;28;20124;-79
2023/01/07 05:08:29;;;;;;;5.03;3.33;;;;;;;12.25;79.96;99689.22;5010505;28;20088;-79
2023/01/07 05:10:55;;;;;;;4.63;4.10;;;;;;;12.25;79.74;99683.06;5010505;28;20089;-79
2023/01/07 05:13:22;;;;;;;4.03;3.63;;;;;;;12.27;79.71;99677.69;5010780;28;20077;-79
2023/01/07 05:15:49;;;;;;;5.30;3.65;;;;;;;12.25;79.69;99677.78;4993142;28;20582;-78
2023/01/07 05:18:16;;;;;;;5.10;3.85;;;;;;;12.25;79.62;99678.66;4993466;28;20081;-79
2023/01/07 05:20:42;;;;;;;5.20;3.90;;;;;;;12.25;79.68;99677.78;5011011;28;20050;-79
2023/01/07 05:23:09;;;;;;;4.40;3.47;;;;;;;12.24;79.61;99669.03;5010821;28;20492;-79
2023/01/07 05:25:35;;;;;;;3.85;3.28;;;;;;;12.24;79.62;99674.31;5010509;28;20057;-79
2023/01/07 05:28:02;;;;;;;3.78;3.38;;;;;;;12.25;79.46;99672.50;5010564;28;20515;-79
2023/01/07 05:30:28;;;;;;;4.22;3.30;;;;;;;12.25;79.53;99667.22;5010879;28;20116;-79
2023/01/07 05:32:55;;;;;;;3.70;2.90;;;;;;;12.24;79.51;99665.56;5010686;28;20112;-79
2023/01/07 05:35:21;;;;;;;4.00;3.10;;;;;;;12.24;79.67;99660.28;5010461;28;20504;-79
2023/01/07 05:37:48;;;;;;;4.70;3.35;;;;;;;12.24;79.31;99660.28;5010513;28;20051;-79
2023/01/07 05:40:15;;;;;;;5.10;3.15;;;;;;;12.23;79.42;99663.88;5010403;28;20107;-79
2023/01/07 05:42:42;;;;;;;3.30;3.00;;;;;;;12.24;79.33;99668.19;5010648;28;20058;-79
2023/01/07 05:45:09;;;;;;;2.83;2.63;;;;;;;12.24;79.39;99665.56;5010365;28;20132;-79
2023/01/07 05:47:35;;;;;;;4.45;3.03;;;;;;;12.24;79.39;99669.03;5010107;28;20054;-79
2023/01/07 05:50:02;;;;;;;3.22;2.90;;;;;;;12.24;79.29;99671.69;5010057;28;20046;-79
2023/01/07 05:52:28;;;;;;;3.22;2.90;;;;;;;12.23;79.02;99663.88;5010183;28;20081;-79
2023/01/07 05:54:55;;;;;;;3.38;2.83;;;;;;;12.22;79.03;99663.00;5009444;28;20533;-79
2023/01/07 05:57:21;;;;;;;7.13;2.80;;;;;;;12.23;79.21;99659.41;4992490;28;20555;-79
2023/01/07 05:59:47;;;;;;;3.08;2.50;;;;;;;12.22;79.25;99657.72;5010001;28;20053;-78
2023/01/07 06:02:14;;;;;;;3.60;2.60;;;;;;;12.20;78.90;99657.00;5010082;28;20081;-79
2023/01/07 06:04:40;;;;;;;4.13;2.60;;;;;;;12.20;78.80;99666.69;5010142;28;20070;-79
2023/01/07 06:07:06;;;;;;;2.58;2.35;;;;;;;12.19;78.80;99659.72;5009870;28;20058;-79
2023/01/07 06:09:33;;;;;;;2.63;2.30;;;;;;;12.19;78.77;99657.09;5009524;28;20049;-79
2023/01/07 06:11:59;;;;;;;4.53;2.40;;;;;;;12.17;78.69;99659.81;5009752;28;20103;-79
2023/01/07 06:14:25;;;;;;;3.70;2.20;;;;;;;12.15;78.42;99661.69;4992458;28;20112;-79
2023/01/07 06:19:31;;;;;;;2.47;2.20;;;;;;;12.10;78.11;99659.38;5008772;28;20058;-80
2023/01/07 06:21:58;;;;;;;4.32;2.28;;;;;;;12.08;78.10;99660.44;5010812;28;20111;-78
2023/01/07 06:24:24;;;;;;;3.08;2.20;;;;;;;12.05;77.96;99650.94;5011083;28;20506;-77
2023/01/07 06:26:51;;;;;;;3.03;2.05;;;;;;;12.03;78.15;99655.41;5011001;28;20046;-79
2023/01/07 06:29:17;;;;;;;2.60;2.08;;;;;;;12.00;77.83;99652.97;5010617;28;20417;-79
2023/01/07 06:31:44;;;;;;;2.47;2.17;;;;;;;11.96;77.83;99647.03;5010679;28;20081;-80
2023/01/07 06:34:10;;;;;;;3.05;2.25;;;;;;;11.94;77.77;99650.72;5007868;28;20062;-79
2023/01/07 06:36:37;;;;;;;5.78;2.30;;;;;;;11.90;77.91;99636.06;4992733;28;20132;-77
2023/01/07 06:39:04;;;;;;;2.78;2.40;;;;;;;11.85;77.77;99641.63;5010965;28;20064;-80
2023/01/07 06:41:30;;;;;;;3.40;2.15;;;;;;;11.82;77.83;99637.38;4993315;28;20568;-79
2023/01/07 06:43:57;;;;;;;2.30;2.10;;;;;;;11.78;77.64;99633.25;5010773;28;20057;-79
2023/01/07 06:46:23;;;;;;;2.17;1.95;;;;;;;11.73;77.73;99625.66;5010590;28;20046;-80
2023/01/07 06:48:50;;;;;;;2.97;2.13;;;;;;;11.70;77.79;99631.09;5008725;28;20041;-80
2023/01/07 06:51:17;;;;;;;2.30;2.10;;;;;;;11.68;77.84;99622.47;5010775;28;20064;-80
2023/01/07 06:53:43;;;;;;;2.70;2.05;;;;;;;11.63;77.83;99626.34;5010752;28;20058;-80
2023/01/07 06:56:10;;;;;;;4.38;2.10;;;;;;;11.61;77.95;99636.97;4993262;28;20093;-79
2023/01/07 06:58:36;;;;;;;2.08;1.90;;;;;;;11.58;77.82;99637.16;5010703;28;20049;-79
2023/01/07 07:01:07;;;;;;;1.83;1.67;;;;;;;11.53;77.39;99632.19;5010735;28;20128;-79
2023/01/07 07:03:34;;;;;;;2.80;1.95;;;;;;;11.52;77.84;99625.22;5010741;28;20069;-80
2023/01/07 07:06:01;;;;;;;3.08;2.13;;;;;;;11.48;77.83;99629.00;5010529;28;20527;-79
2023/01/07 07:08:27;;;;;;;1.90;1.80;;;;;;;11.46;77.80;99628.25;5010870;28;20050;-79
2023/01/07 07:10:54;;;;;;;5.40;2.15;;;;;;;11.43;77.88;99620.50;5010775;28;20149;-77
2023/01/07 07:13:20;;;;;;;2.33;1.98;;;;;;;11.40;77.91;99623.38;5010772;28;20053;-79
2023/01/07 07:15:48;;;;;;;2.13;1.92;;;;;;;11.35;77.93;99623.63;5010547;28;20046;-79
2023/01/07 07:18:18;;;;;;;2.03;1.83;;;;;;;11.32;77.52;99613.28;5010484;28;20058;-79
2023/01/07 07:20:46;;;;;;;2.40;1.85;;;;;;;11.31;78.01;99617.72;5010750;28;20141;-78
2023/01/07 07:23:12;;;;;;;2.30;1.80;;;;;;;11.29;78.21;99626.66;5010705;28;20057;-80
2023/01/07 07:25:39;;;;;;;3.50;2.00;;;;;;;11.28;78.32;99623.19;5010300;28;20049;-80
2023/01/07 07:28:06;;;;;;;2.30;1.88;;;;;;;11.27;78.26;99623.28;5010379;28;20061;-79
2023/01/07 07:30:32;;;;;;;3.20;2.28;;;;;;;11.28;78.26;99624.97;5010315;28;20050;-79
2023/01/07 07:33:13;;;;;;;3.03;2.17;;;;;;;11.26;78.12;99614.53;5013948;28;20486;-79
2023/01/07 07:35:40;;;;;;;3.70;1.77;;;;;;;11.24;78.30;99610.28;5014088;28;20104;-78
2023/01/07 07:38:07;;;;;;;2.50;2.30;;;;;;;11.23;78.33;99620.00;5014027;28;20042;-80
2023/01/07 07:40:33;;;;;;;2.20;2.00;;;;;;;11.23;78.53;99611.22;5014111;28;20049;-80
2023/01/07 07:43:00;;;;;;;2.58;2.00;;;;;;;11.22;78.55;99615.66;5014017;28;20136;-80
2023/01/07 07:45:38;;;;;;;4.32;2.22;;;;;;;11.22;78.56;99613.03;5014041;28;20053;-79
2023/01/07 07:48:06;;;;;;;2.95;2.30;;;;;;;11.24;78.61;99610.28;5013884;28;20042;-80
2023/01/07 07:50:33;;;;;;;2.25;2.03;;;;;;;11.23;78.54;99611.22;5013815;28;20438;-80
2023/01/07 07:53:00;;;;;;;2.88;2.03;;;;;;;11.23;78.53;99621.75;5013784;28;20052;-80
2023/01/07 07:55:27;;;;;;;4.10;2.45;;;;;;;11.22;78.69;99613.03;5013426;28;20448;-79
2023/01/07 07:57:54;;;;;;;2.67;2.08;;;;;;;11.23;78.76;99603.31;5013577;28;20081;-79
2023/01/07 08:00:22;;;;;;;2.72;2.05;;;;;;;11.24;78.58;99605.88;5013611;28;20413;-80
2023/01/07 08:02:48;;;;;;;3.42;2.10;;;;;;;11.23;78.28;99604.19;5013530;28;20057;-79
2023/01/07 08:05:15;;;;;;;3.80;2.45;;;;;;;11.24;78.44;99607.66;5013313;28;20054;-81
2023/01/07 08:07:42;;;;;;;2.95;2.20;;;;;;;11.24;78.59;99608.50;5013449;28;20049;-79
2023/01/07 08:10:08;;;;;;;2.88;2.50;;;;;;;11.24;78.57;99608.50;5013284;28;20077;-81
2023/01/07 08:12:37;;;;;;;4.70;2.00;;;;;;;11.26;78.67;99611.91;4995774;28;20129;-80
2023/01/07 08:15:05;;;;;;;2.72;2.30;;;;;;;11.27;78.70;99607.47;5012963;28;20498;-80
2023/01/07 08:17:31;;;;;;;2.53;2.33;;;;;;;11.28;78.55;99611.78;5013430;28;20233;-80
2023/01/07 08:19:58;;;;;;;2.35;2.15;;;;;;;11.28;78.51;99601.25;5013533;28;20140;-78
2023/01/07 08:22:25;;;;;;;2.75;2.20;;;;;;;11.30;78.52;99602.00;5013323;28;20138;-79
2023/01/07 08:24:51;;;;;;;2.42;1.98;;;;;;;11.31;78.62;99598.44;5013000;28;20054;-78
2023/01/07 08:27:18;;;;;;;3.80;2.53;;;;;;;11.31;78.59;99604.56;5013279;28;20054;-80
2023/01/07 08:29:44;;;;;;;2.33;2.13;;;;;;;11.32;78.63;99598.34;5013944;28;20050;-80
2023/01/07 08:32:11;;;;;;;4.15;2.42;;;;;;;11.33;78.44;99593.91;5013198;28;20050;-79
2023/01/07 08:34:38;;;;;;;5.65;2.65;;;;;;;11.33;78.33;99597.38;5013150;28;20137;-80
2023/01/07 08:37:04;;;;;;;2.63;2.10;;;;;;;11.35;78.37;99586.75;5012718;28;20058;-80
2023/01/07 08:39:31;;;;;;;2.42;2.22;;;;;;;11.38;78.88;99601.53;5012895;28;20119;-79
2023/01/07 08:41:57;;;;;;;4.70;2.33;;;;;;;11.37;78.38;99590.16;5013161;28;20042;-78
2023/01/07 08:44:24;;;;;;;3.45;2.13;;;;;;;11.39;78.52;99592.66;5012202;28;20117;-80
2023/01/07 08:46:52;;;;;;;3.53;2.30;;;;;;;11.41;78.47;99588.16;5012403;28;20049;-80
2023/01/07 08:49:19;;;;;;;2.80;2.25;;;;;;;11.44;78.34;99587.97;5012828;28;20145;-81
2023/01/07 08:51:45;;;;;;;2.63;2.42;;;;;;;11.45;78.45;99577.31;5012601;28;20056;-80
2023/01/07 08:54:12;;;;;;;3.22;2.20;;;;;;;11.47;78.41;99575.44;5012496;28;20050;-81
2023/01/07 08:56:38;;;;;;;2.75;2.10;;;;;;;11.50;78.25;99574.38;4995082;28;20046;-79
2023/01/07 08:59:05;;;;;;;2.55;2.20;;;;;;;11.53;78.28;99579.47;4995218;28;20120;-79
2023/01/07 09:01:31;;;;;;;3.72;2.40;;;;;;;11.54;78.13;99578.53;5012528;28;20081;-80
2023/01/07 09:03:58;;;;;;;3.35;2.53;;;;;;;11.56;78.00;99575.78;5012446;28;20498;-80
2023/01/07 09:06:25;;;;;;;2.20;1.98;;;;;;;11.57;78.03;99572.19;5012185;28;20049;-80
2023/01/07 09:08:51;;;;;;;3.95;2.25;;;;;;;11.59;77.84;99578.25;5012508;28;20045;-80
2023/01/07 09:11:18;;;;;;;2.40;2.20;;;;;;;11.62;78.09;99577.19;5012495;28;20081;-80
2023/01/07 09:14:17;;;;;;;6.43;2.03;;;;;;;11.58;76.22;99576.53;4995047;28;20136;-80
2023/01/07 09:16:54;;;;;;;1.90;1.70;;;;;;;11.65;77.75;99579.59;4934917;28;20050;-80
2023/01/07 09:19:21;;;;;;;2.50;2.22;;;;;;;11.66;77.87;99576.88;4995086;28;20064;-80
2023/01/07 09:21:50;;;;;;;2.20;2.00;;;;;;;11.67;77.79;99569.81;5012416;28;20495;-79
2023/01/07 09:24:17;;;;;;;2.20;1.83;;;;;;;11.67;77.70;99567.19;5012204;28;20050;-80
2023/01/07 09:26:43;;;;;;;3.13;1.90;;;;;;;11.68;77.70;99574.16;4994275;28;20545;-80
2023/01/07 09:29:10;;;;;;;2.40;1.73;;;;;;;11.69;77.51;99567.91;5012053;28;20407;-79
2023/01/07 09:31:36;;;;;;;2.15;1.95;;;;;;;11.71;77.45;99566.03;5011928;28;20482;-79
2023/01/07 09:34:03;;;;;;;2.00;1.73;;;;;;;11.72;77.57;99559.81;5012179;28;20054;-79
2023/01/07 09:36:30;;;;;;;2.78;1.88;;;;;;;11.73;77.62;99567.63;5012002;28;20461;-79
2023/01/07 09:38:57;;;;;;;2.88;2.00;;;;;;;11.76;77.64;99565.72;5011560;28;20133;-79
2023/01/07 09:41:50;;;;;;;3.20;2.00;;;;;;;11.76;76.72;99560.44;5011750;28;20058;-80
2023/01/07 09:44:31;;;;;;;4.40;2.28;;;;;;;11.80;76.62;99562.81;5011596;28;20061;-79
2023/01/07 09:46:59;;;;;;;5.07;2.33;;;;;;;11.83;77.26;99559.13;5011411;28;20140;-79
2023/01/07 09:49:31;;;;;;;4.32;2.58;;;;;;;11.83;76.65;99559.13;5011719;28;20064;-80
2023/01/07 09:52:09;;;;;;;4.07;2.63;;;;;;;11.82;75.68;99549.53;4994321;28;20053;-79
2023/01/07 09:54:38;;;;;;;3.22;2.15;;;;;;;11.84;76.95;99551.09;5011308;28;20050;-80
2023/01/07 09:57:10;;;;;;;4.70;2.40;;;;;;;11.83;76.96;99544.16;5011067;28;20049;-81
2023/01/07 09:59:43;;;;;;;3.85;2.22;;;;;;;11.86;77.27;99551.84;5011613;28;20058;-80
2023/01/07 10:02:36;;;;;;;3.33;2.30;;;;;;;11.86;77.29;99543.94;4993981;28;20056;-79
2023/01/07 10:05:24;;;;;;;3.10;2.10;;;;;;;11.88;76.75;99546.47;5011185;28;20050;-79
2023/01/07 10:08:22;;;;;;;2.88;2.15;;;;;;;11.87;75.98;99550.06;5011254;28;20125;-79
2023/01/07 10:11:00;;;;;;;2.15;1.92;;;;;;;11.92;76.86;99540.03;5011207;28;20050;-79
2023/01/07 10:13:35;;;;;;;2.47;2.20;;;;;;;11.94;76.25;99532.03;5011336;28;20060;-80
2023/01/07 10:16:25;;;;;;;2.55;2.10;;;;;;;11.93;75.92;99533.00;4993619;28;20041;-81
2023/01/07 10:19:14;;;;;;;2.28;1.80;;;;;;;11.95;75.93;99528.44;5010960;28;20732;-80
2023/01/07 10:21:50;;;;;;;3.45;1.70;;;;;;;12.01;77.04;99519.28;5010924;28;20054;-79
2023/01/07 10:24:31;;;;;;;1.67;1.58;;;;;;;12.02;76.49;99521.81;5011160;28;20057;-79
2023/01/07 10:27:03;;;;;;;2.42;1.83;;;;;;;12.06;76.92;99519.84;5010650;28;20085;-79
2023/01/07 10:29:38;;;;;;;2.83;1.88;;;;;;;12.12;77.52;99509.72;5011022;28;20085;-79
2023/01/07 10:32:14;;;;;;;1.65;1.50;;;;;;;12.13;76.30;99507.94;5010865;28;20052;-79
2023/01/07 10:34:47;;;;;;;2.45;1.67;;;;;;;12.18;76.54;99499.72;5011057;28;20065;-78
2023/01/07 10:37:34;;;;;;;3.10;1.63;;;;;;;12.20;75.99;99501.31;5010899;28;20513;-79
2023/01/07 10:40:15;;;;;;;3.10;1.40;;;;;;;12.24;75.66;99502.78;5010786;28;20046;-80
2023/01/07 10:43:22;;;;;;;1.50;1.40;;;;;;;12.28;75.18;99498.13;5010942;28;20050;-80
2023/01/07 10:45:58;;;;;;;1.98;1.40;;;;;;;12.32;75.76;99482.91;5010478;28;20100;-79
2023/01/07 10:48:49;;;;;;;2.25;1.70;;;;;;;12.30;74.27;99485.66;4993268;28;20132;-79
2023/01/07 10:51:53;;;;;;;3.65;1.88;;;;;;;12.28;72.92;99477.03;5010828;28;20061;-80
2023/01/07 10:54:57;;;;;;;2.33;1.50;;;;;;;12.30;73.41;99471.66;4993083;28;20050;-79
2023/01/07 10:57:27;;;;;;;1.67;1.58;;;;;;;12.33;74.72;99464.34;5010685;28;20053;-80
2023/01/07 11:00:01;;;;;;;1.52;1.42;;;;;;;12.32;74.34;99467.94;4993323;28;20108;-80
2023/01/07 11:02:28;;;;;;;2.15;1.30;;;;;;;12.31;74.72;99463.63;5010823;28;20165;-80
2023/01/07 11:04:57;;;;;;;1.35;1.25;;;;;;;12.32;74.33;99453.88;5010334;28;20042;-79
2023/01/07 11:07:42;;;;;;;1.60;1.50;;;;;;;12.27;70.77;99458.66;5012876;28;20467;-80
2023/01/07 11:10:32;;;;;;;1.30;1.20;;;;;;;12.26;71.56;99447.25;4997150;28;20084;-79
2023/01/07 11:13:20;;;;;;;1.83;1.30;;;;;;;12.26;71.41;99441.97;5014328;28;20053;-79
2023/01/07 11:15:54;;;;;;;1.55;1.45;;;;;;;12.29;73.63;99433.84;5014024;28;20088;-79
2023/01/07 11:18:25;;;;;;;1.65;1.40;;;;;;;12.28;73.38;99437.44;5014272;28;20391;-79
2023/01/07 11:20:54;;;;;;;2.15;1.60;;;;;;;12.29;73.63;99425.91;4996923;28;20046;-79
2023/01/07 11:23:26;;;;;;;2.58;1.60;;;;;;;12.32;74.38;99420.44;5014127;28;20409;-79
2023/01/07 11:26:03;;;;;;;3.63;1.70;;;;;;;12.30;73.71;99424.13;5013993;28;20049;-79
2023/01/07 11:28:32;;;;;;;2.25;1.70;;;;;;;12.30;73.78;99414.41;5014184;28;20331;-79
2023/01/07 11:31:00;;;;;;;1.80;1.70;;;;;;;12.31;73.80;99405.56;5014162;28;20050;-78
2023/01/07 11:33:40;;;;;;;1.48;1.38;;;;;;;12.29;72.22;99401.34;5014104;28;20053;-79
2023/01/07 11:36:41;;;;;;;2.42;1.40;;;;;;;12.29;71.29;99388.16;5013665;28;20414;-80
2023/01/07 11:39:18;;;;;;;1.50;1.40;;;;;;;12.32;71.56;99387.91;5014048;28;20140;-79
2023/01/07 11:41:58;;;;;;;1.77;1.25;;;;;;;12.32;70.62;99375.56;5013940;28;20062;-80
2023/01/07 11:44:25;;;;;;;3.53;1.45;;;;;;;12.39;74.06;99378.63;5013778;28;20094;-78
2023/01/07 11:46:53;;;;;;;1.45;1.35;;;;;;;12.41;73.62;99357.41;4995935;28;20205;-79
2023/01/07 11:49:29;;;;;;;1.55;1.00;;;;;;;12.41;72.24;99360.03;5013983;28;20414;-78
2023/01/07 11:51:57;;;;;;;1.63;1.00;;;;;;;12.47;74.03;99359.59;5013662;28;20145;-80
2023/01/07 11:54:26;;;;;;;2.28;0.90;;;;;;;12.50;73.54;99343.53;5013651;28;20060;-78